sensor_id;sensor_type;location;lat;lon;timestamp;P1;durP1;ratioP1;P2;durP2;ratioP2
46765;SDS011;32527;51.986;5.842;2023-05-10T00:00:42;27.05;;;19.63;;
46765;SDS011;32527;51.986;5.842;2023-05-10T00:03:08;24.23;;;17.55;;
46765;SDS011;32527;51.986;5.842;2023-05-10T00:05:34;27.73;;;18.80;;
46765;SDS011;32527;51.986;5.842;2023-05-10T00:08:00;26.40;;;18.55;;
46765;SDS011;32527;51.986;5.842;2023-05-10T00:10:26;27.63;;;19.20;;
46765;SDS011;32527;51.986;5.842;2023-05-10T00:12:52;28.52;;;17.83;;
46765;SDS011;32527;51.986;5.842;2023-05-10T00:15:18;23.75;;;18.15;;
46765;SDS011;32527;51.986;5.842;2023-05-10T00:17:44;29.52;;;20.73;;
46765;SDS011;32527;51.986;5.842;2023-05-10T00:20:11;33.80;;;21.23;;
46765;SDS011;32527;51.986;5.842;2023-05-10T00:22:37;29.00;;;20.35;;
46765;SDS011;32527;51.986;5.842;2023-05-10T00:25:03;29.35;;;21.17;;
46765;SDS011;32527;51.986;5.842;2023-05-10T00:27:29;24.13;;;18.92;;
46765;SDS011;32527;51.986;5.842;2023-05-10T00:29:55;26.35;;;19.50;;
46765;SDS011;32527;51.986;5.842;2023-05-10T00:32:21;32.28;;;19.10;;
46765;SDS011;32527;51.986;5.842;2023-05-10T00:34:47;34.13;;;19.55;;
46765;SDS011;32527;51.986;5.842;2023-05-10T00:37:13;27.20;;;19.05;;
46765;SDS011;32527;51.986;5.842;2023-05-10T00:39:39;32.15;;;20.95;;
46765;SDS011;32527;51.986;5.842;2023-05-10T00:42:05;32.97;;;21.33;;
46765;SDS011;32527;51.986;5.842;2023-05-10T00:44:31;36.55;;;24.00;;
46765;SDS011;32527;51.986;5.842;2023-05-10T00:46:57;33.85;;;22.13;;
46765;SDS011;32527;51.986;5.842;2023-05-10T00:49:24;31.05;;;20.17;;
46765;SDS011;32527;51.986;5.842;2023-05-10T00:51:50;38.30;;;23.10;;
46765;SDS011;32527;51.986;5.842;2023-05-10T00:54:16;37.40;;;21.75;;
46765;SDS011;32527;51.986;5.842;2023-05-10T00:56:43;30.45;;;21.25;;
46765;SDS011;32527;51.986;5.842;2023-05-10T00:59:14;29.75;;;21.33;;
46765;SDS011;32527;51.986;5.842;2023-05-10T01:01:46;28.75;;;20.75;;
46765;SDS011;32527;51.986;5.842;2023-05-10T01:04:12;36.05;;;22.08;;
46765;SDS011;32527;51.986;5.842;2023-05-10T01:06:39;36.03;;;23.17;;
46765;SDS011;32527;51.986;5.842;2023-05-10T01:09:05;35.05;;;21.90;;
46765;SDS011;32527;51.986;5.842;2023-05-10T01:11:35;39.33;;;22.05;;
46765;SDS011;32527;51.986;5.842;2023-05-10T01:14:02;42.70;;;22.42;;
46765;SDS011;32527;51.986;5.842;2023-05-10T01:16:33;38.60;;;22.77;;
46765;SDS011;32527;51.986;5.842;2023-05-10T01:19:03;46.75;;;24.05;;
46765;SDS011;32527;51.986;5.842;2023-05-10T01:21:38;42.63;;;23.38;;
46765;SDS011;32527;51.986;5.842;2023-05-10T01:27:13;38.72;;;22.50;;
46765;SDS011;32527;51.986;5.842;2023-05-10T01:32:54;42.13;;;21.13;;
46765;SDS011;32527;51.986;5.842;2023-05-10T01:35:30;43.80;;;24.48;;
46765;SDS011;32527;51.986;5.842;2023-05-10T01:40:48;44.20;;;22.92;;
46765;SDS011;32527;51.986;5.842;2023-05-10T01:43:22;34.92;;;22.70;;
46765;SDS011;32527;51.986;5.842;2023-05-10T01:45:58;42.13;;;24.02;;
46765;SDS011;32527;51.986;5.842;2023-05-10T01:48:30;50.28;;;23.92;;
46765;SDS011;32527;51.986;5.842;2023-05-10T01:50:59;34.30;;;22.27;;
46765;SDS011;32527;51.986;5.842;2023-05-10T01:53:25;34.70;;;21.50;;
46765;SDS011;32527;51.986;5.842;2023-05-10T01:55:52;35.15;;;20.00;;
46765;SDS011;32527;51.986;5.842;2023-05-10T01:58:21;39.95;;;22.05;;
46765;SDS011;32527;51.986;5.842;2023-05-10T02:00:52;30.58;;;21.17;;
46765;SDS011;32527;51.986;5.842;2023-05-10T02:03:18;41.53;;;22.08;;
46765;SDS011;32527;51.986;5.842;2023-05-10T02:05:46;37.80;;;19.45;;
46765;SDS011;32527;51.986;5.842;2023-05-10T02:08:14;47.42;;;25.13;;
46765;SDS011;32527;51.986;5.842;2023-05-10T02:10:42;37.50;;;20.88;;
46765;SDS011;32527;51.986;5.842;2023-05-10T02:13:08;45.70;;;21.35;;
46765;SDS011;32527;51.986;5.842;2023-05-10T02:15:36;37.35;;;22.08;;
46765;SDS011;32527;51.986;5.842;2023-05-10T02:18:03;41.33;;;21.40;;
46765;SDS011;32527;51.986;5.842;2023-05-10T02:20:30;41.85;;;22.30;;
46765;SDS011;32527;51.986;5.842;2023-05-10T02:22:57;43.55;;;21.73;;
46765;SDS011;32527;51.986;5.842;2023-05-10T02:25:23;42.55;;;19.83;;
46765;SDS011;32527;51.986;5.842;2023-05-10T02:27:51;51.08;;;21.10;;
46765;SDS011;32527;51.986;5.842;2023-05-10T02:30:19;44.85;;;21.80;;
46765;SDS011;32527;51.986;5.842;2023-05-10T02:32:48;42.00;;;21.55;;
46765;SDS011;32527;51.986;5.842;2023-05-10T02:35:16;45.88;;;22.70;;
46765;SDS011;32527;51.986;5.842;2023-05-10T02:37:42;40.60;;;22.50;;
46765;SDS011;32527;51.986;5.842;2023-05-10T02:40:10;42.97;;;21.17;;
46765;SDS011;32527;51.986;5.842;2023-05-10T02:42:37;45.50;;;19.65;;
46765;SDS011;32527;51.986;5.842;2023-05-10T02:45:07;45.03;;;21.00;;
46765;SDS011;32527;51.986;5.842;2023-05-10T02:47:36;48.42;;;22.35;;
46765;SDS011;32527;51.986;5.842;2023-05-10T02:50:02;45.22;;;20.27;;
46765;SDS011;32527;51.986;5.842;2023-05-10T02:52:35;49.80;;;22.30;;
46765;SDS011;32527;51.986;5.842;2023-05-10T02:55:05;36.40;;;20.00;;
46765;SDS011;32527;51.986;5.842;2023-05-10T02:57:32;41.40;;;21.45;;
46765;SDS011;32527;51.986;5.842;2023-05-10T03:00:00;42.00;;;19.75;;
46765;SDS011;32527;51.986;5.842;2023-05-10T03:02:27;41.85;;;20.08;;
46765;SDS011;32527;51.986;5.842;2023-05-10T03:04:55;45.90;;;19.95;;
46765;SDS011;32527;51.986;5.842;2023-05-10T03:07:22;53.15;;;20.75;;
46765;SDS011;32527;51.986;5.842;2023-05-10T03:09:48;42.60;;;18.98;;
46765;SDS011;32527;51.986;5.842;2023-05-10T03:12:38;41.53;;;19.40;;
46765;SDS011;32527;51.986;5.842;2023-05-10T03:18:34;41.83;;;17.17;;
46765;SDS011;32527;51.986;5.842;2023-05-10T03:21:04;42.17;;;18.92;;
46765;SDS011;32527;51.986;5.842;2023-05-10T03:26:08;45.33;;;20.38;;
46765;SDS011;32527;51.986;5.842;2023-05-10T03:28:34;43.65;;;21.33;;
46765;SDS011;32527;51.986;5.842;2023-05-10T03:31:02;37.67;;;21.63;;
46765;SDS011;32527;51.986;5.842;2023-05-10T03:33:31;58.53;;;20.27;;
46765;SDS011;32527;51.986;5.842;2023-05-10T03:35:58;43.63;;;19.70;;
46765;SDS011;32527;51.986;5.842;2023-05-10T03:38:25;35.70;;;19.45;;
46765;SDS011;32527;51.986;5.842;2023-05-10T03:40:51;50.55;;;19.13;;
46765;SDS011;32527;51.986;5.842;2023-05-10T03:43:18;38.70;;;19.85;;
46765;SDS011;32527;51.986;5.842;2023-05-10T03:45:44;39.30;;;18.10;;
46765;SDS011;32527;51.986;5.842;2023-05-10T03:48:10;49.88;;;20.75;;
46765;SDS011;32527;51.986;5.842;2023-05-10T03:50:40;39.63;;;19.30;;
46765;SDS011;32527;51.986;5.842;2023-05-10T03:53:06;48.67;;;20.92;;
46765;SDS011;32527;51.986;5.842;2023-05-10T03:55:32;45.00;;;18.95;;
46765;SDS011;32527;51.986;5.842;2023-05-10T03:58:01;42.42;;;20.10;;
46765;SDS011;32527;51.986;5.842;2023-05-10T04:00:27;43.25;;;18.33;;
46765;SDS011;32527;51.986;5.842;2023-05-10T04:02:54;48.85;;;19.50;;
46765;SDS011;32527;51.986;5.842;2023-05-10T04:05:20;37.03;;;17.70;;
46765;SDS011;32527;51.986;5.842;2023-05-10T04:07:46;39.30;;;19.50;;
46765;SDS011;32527;51.986;5.842;2023-05-10T04:10:14;41.70;;;19.70;;
46765;SDS011;32527;51.986;5.842;2023-05-10T04:12:41;42.30;;;21.75;;
46765;SDS011;32527;51.986;5.842;2023-05-10T04:15:07;50.95;;;18.75;;
46765;SDS011;32527;51.986;5.842;2023-05-10T04:17:33;40.47;;;18.75;;
46765;SDS011;32527;51.986;5.842;2023-05-10T04:19:59;43.13;;;18.92;;
46765;SDS011;32527;51.986;5.842;2023-05-10T04:22:25;36.17;;;19.15;;
46765;SDS011;32527;51.986;5.842;2023-05-10T04:24:52;36.33;;;18.33;;
46765;SDS011;32527;51.986;5.842;2023-05-10T04:27:18;44.45;;;18.92;;
46765;SDS011;32527;51.986;5.842;2023-05-10T04:29:44;47.05;;;17.05;;
46765;SDS011;32527;51.986;5.842;2023-05-10T04:32:10;36.45;;;18.98;;
46765;SDS011;32527;51.986;5.842;2023-05-10T04:34:37;39.35;;;18.27;;
46765;SDS011;32527;51.986;5.842;2023-05-10T04:37:03;35.25;;;18.10;;
46765;SDS011;32527;51.986;5.842;2023-05-10T04:39:29;48.40;;;20.65;;
46765;SDS011;32527;51.986;5.842;2023-05-10T04:41:55;49.08;;;19.65;;
46765;SDS011;32527;51.986;5.842;2023-05-10T04:44:21;38.85;;;19.83;;
46765;SDS011;32527;51.986;5.842;2023-05-10T04:46:47;50.53;;;21.42;;
46765;SDS011;32527;51.986;5.842;2023-05-10T04:49:13;37.40;;;18.58;;
46765;SDS011;32527;51.986;5.842;2023-05-10T04:51:39;35.30;;;16.60;;
46765;SDS011;32527;51.986;5.842;2023-05-10T04:54:05;40.45;;;19.48;;
46765;SDS011;32527;51.986;5.842;2023-05-10T04:56:31;38.28;;;19.60;;
46765;SDS011;32527;51.986;5.842;2023-05-10T04:58:57;40.00;;;18.15;;
46765;SDS011;32527;51.986;5.842;2023-05-10T05:01:23;38.25;;;18.45;;
46765;SDS011;32527;51.986;5.842;2023-05-10T05:03:49;37.53;;;19.83;;
46765;SDS011;32527;51.986;5.842;2023-05-10T05:06:17;35.38;;;18.35;;
46765;SDS011;32527;51.986;5.842;2023-05-10T05:08:43;35.80;;;18.85;;
46765;SDS011;32527;51.986;5.842;2023-05-10T05:11:09;34.22;;;19.60;;
46765;SDS011;32527;51.986;5.842;2023-05-10T05:13:35;43.53;;;18.42;;
46765;SDS011;32527;51.986;5.842;2023-05-10T05:16:02;55.35;;;19.70;;
46765;SDS011;32527;51.986;5.842;2023-05-10T05:18:28;42.97;;;18.80;;
46765;SDS011;32527;51.986;5.842;2023-05-10T05:20:54;34.40;;;18.48;;
46765;SDS011;32527;51.986;5.842;2023-05-10T05:23:20;37.83;;;18.60;;
46765;SDS011;32527;51.986;5.842;2023-05-10T05:25:49;40.35;;;20.42;;
46765;SDS011;32527;51.986;5.842;2023-05-10T05:28:17;32.78;;;18.98;;
46765;SDS011;32527;51.986;5.842;2023-05-10T05:30:43;35.75;;;19.30;;
46765;SDS011;32527;51.986;5.842;2023-05-10T05:33:09;32.30;;;18.95;;
46765;SDS011;32527;51.986;5.842;2023-05-10T05:35:35;33.25;;;18.58;;
46765;SDS011;32527;51.986;5.842;2023-05-10T05:38:01;51.17;;;19.38;;
46765;SDS011;32527;51.986;5.842;2023-05-10T05:40:27;37.00;;;18.15;;
46765;SDS011;32527;51.986;5.842;2023-05-10T05:42:53;26.67;;;18.05;;
46765;SDS011;32527;51.986;5.842;2023-05-10T05:45:19;36.60;;;19.83;;
46765;SDS011;32527;51.986;5.842;2023-05-10T05:47:46;34.97;;;20.55;;
46765;SDS011;32527;51.986;5.842;2023-05-10T05:50:12;32.85;;;20.35;;
46765;SDS011;32527;51.986;5.842;2023-05-10T05:52:38;38.58;;;19.13;;
46765;SDS011;32527;51.986;5.842;2023-05-10T05:55:04;38.70;;;19.67;;
46765;SDS011;32527;51.986;5.842;2023-05-10T05:57:30;36.67;;;20.02;;
46765;SDS011;32527;51.986;5.842;2023-05-10T05:59:56;41.58;;;18.55;;
46765;SDS011;32527;51.986;5.842;2023-05-10T06:02:22;39.50;;;20.35;;
46765;SDS011;32527;51.986;5.842;2023-05-10T06:04:48;37.30;;;19.08;;
46765;SDS011;32527;51.986;5.842;2023-05-10T06:07:15;35.17;;;19.30;;
46765;SDS011;32527;51.986;5.842;2023-05-10T06:09:41;36.63;;;20.23;;
46765;SDS011;32527;51.986;5.842;2023-05-10T06:12:07;36.03;;;17.85;;
46765;SDS011;32527;51.986;5.842;2023-05-10T06:14:33;44.58;;;19.98;;
46765;SDS011;32527;51.986;5.842;2023-05-10T06:16:59;47.53;;;20.00;;
46765;SDS011;32527;51.986;5.842;2023-05-10T06:19:25;53.00;;;21.13;;
46765;SDS011;32527;51.986;5.842;2023-05-10T06:21:52;42.42;;;19.25;;
46765;SDS011;32527;51.986;5.842;2023-05-10T06:24:18;33.13;;;17.42;;
46765;SDS011;32527;51.986;5.842;2023-05-10T06:26:44;35.65;;;20.50;;
46765;SDS011;32527;51.986;5.842;2023-05-10T06:29:10;34.55;;;19.90;;
46765;SDS011;32527;51.986;5.842;2023-05-10T06:31:36;36.33;;;21.40;;
46765;SDS011;32527;51.986;5.842;2023-05-10T06:34:01;34.45;;;20.40;;
46765;SDS011;32527;51.986;5.842;2023-05-10T06:36:28;36.40;;;19.65;;
46765;SDS011;32527;51.986;5.842;2023-05-10T06:38:54;36.38;;;19.85;;
46765;SDS011;32527;51.986;5.842;2023-05-10T06:41:20;37.28;;;19.58;;
46765;SDS011;32527;51.986;5.842;2023-05-10T06:43:46;33.55;;;19.42;;
46765;SDS011;32527;51.986;5.842;2023-05-10T06:46:12;37.17;;;17.92;;
46765;SDS011;32527;51.986;5.842;2023-05-10T06:48:38;43.55;;;20.33;;
46765;SDS011;32527;51.986;5.842;2023-05-10T06:51:04;35.13;;;22.95;;
46765;SDS011;32527;51.986;5.842;2023-05-10T06:53:30;33.38;;;18.83;;
46765;SDS011;32527;51.986;5.842;2023-05-10T06:55:56;34.95;;;22.00;;
46765;SDS011;32527;51.986;5.842;2023-05-10T06:58:22;40.80;;;23.42;;
46765;SDS011;32527;51.986;5.842;2023-05-10T07:00:48;49.70;;;21.45;;
46765;SDS011;32527;51.986;5.842;2023-05-10T07:03:14;43.63;;;23.67;;
46765;SDS011;32527;51.986;5.842;2023-05-10T07:05:40;39.17;;;22.77;;
46765;SDS011;32527;51.986;5.842;2023-05-10T07:08:06;44.40;;;22.83;;
46765;SDS011;32527;51.986;5.842;2023-05-10T07:10:33;42.70;;;23.55;;
46765;SDS011;32527;51.986;5.842;2023-05-10T07:12:59;39.17;;;21.90;;
46765;SDS011;32527;51.986;5.842;2023-05-10T07:15:26;53.65;;;25.45;;
46765;SDS011;32527;51.986;5.842;2023-05-10T07:17:52;36.78;;;20.92;;
46765;SDS011;32527;51.986;5.842;2023-05-10T07:20:19;40.85;;;23.25;;
46765;SDS011;32527;51.986;5.842;2023-05-10T07:22:45;45.85;;;25.00;;
46765;SDS011;32527;51.986;5.842;2023-05-10T07:25:11;35.83;;;22.67;;
46765;SDS011;32527;51.986;5.842;2023-05-10T07:27:37;44.15;;;25.25;;
46765;SDS011;32527;51.986;5.842;2023-05-10T07:30:03;40.05;;;24.35;;
46765;SDS011;32527;51.986;5.842;2023-05-10T07:32:29;42.20;;;23.85;;
46765;SDS011;32527;51.986;5.842;2023-05-10T07:34:55;48.05;;;25.50;;
46765;SDS011;32527;51.986;5.842;2023-05-10T07:37:21;36.80;;;25.98;;
46765;SDS011;32527;51.986;5.842;2023-05-10T07:39:47;44.17;;;27.38;;
46765;SDS011;32527;51.986;5.842;2023-05-10T07:42:13;42.30;;;25.08;;
46765;SDS011;32527;51.986;5.842;2023-05-10T07:44:39;36.90;;;22.90;;
46765;SDS011;32527;51.986;5.842;2023-05-10T07:47:05;32.88;;;23.67;;
46765;SDS011;32527;51.986;5.842;2023-05-10T07:49:31;39.95;;;24.42;;
46765;SDS011;32527;51.986;5.842;2023-05-10T07:51:57;45.90;;;24.27;;
46765;SDS011;32527;51.986;5.842;2023-05-10T07:54:23;38.95;;;24.88;;
46765;SDS011;32527;51.986;5.842;2023-05-10T07:56:49;36.47;;;23.67;;
46765;SDS011;32527;51.986;5.842;2023-05-10T07:59:16;34.88;;;22.90;;
46765;SDS011;32527;51.986;5.842;2023-05-10T08:01:42;31.50;;;22.65;;
46765;SDS011;32527;51.986;5.842;2023-05-10T08:04:09;34.28;;;22.50;;
46765;SDS011;32527;51.986;5.842;2023-05-10T08:06:35;34.35;;;23.35;;
46765;SDS011;32527;51.986;5.842;2023-05-10T08:09:01;34.72;;;25.38;;
46765;SDS011;32527;51.986;5.842;2023-05-10T08:11:27;30.23;;;22.42;;
46765;SDS011;32527;51.986;5.842;2023-05-10T08:13:53;32.15;;;23.25;;
46765;SDS011;32527;51.986;5.842;2023-05-10T08:16:20;32.42;;;24.08;;
46765;SDS011;32527;51.986;5.842;2023-05-10T08:18:46;34.67;;;23.35;;
46765;SDS011;32527;51.986;5.842;2023-05-10T08:21:12;29.92;;;24.95;;
46765;SDS011;32527;51.986;5.842;2023-05-10T08:23:39;34.30;;;25.80;;
46765;SDS011;32527;51.986;5.842;2023-05-10T08:26:05;31.30;;;24.90;;
46765;SDS011;32527;51.986;5.842;2023-05-10T08:28:31;29.58;;;24.20;;
46765;SDS011;32527;51.986;5.842;2023-05-10T08:30:58;30.95;;;23.52;;
46765;SDS011;32527;51.986;5.842;2023-05-10T08:33:24;31.73;;;25.83;;
46765;SDS011;32527;51.986;5.842;2023-05-10T08:35:50;25.35;;;22.83;;
46765;SDS011;32527;51.986;5.842;2023-05-10T08:38:17;24.65;;;22.00;;
46765;SDS011;32527;51.986;5.842;2023-05-10T08:40:43;25.63;;;22.60;;
46765;SDS011;32527;51.986;5.842;2023-05-10T08:43:11;23.13;;;20.83;;
46765;SDS011;32527;51.986;5.842;2023-05-10T08:45:38;22.50;;;20.13;;
46765;SDS011;32527;51.986;5.842;2023-05-10T08:48:05;25.77;;;23.27;;
46765;SDS011;32527;51.986;5.842;2023-05-10T08:50:36;25.40;;;23.02;;
46765;SDS011;32527;51.986;5.842;2023-05-10T08:53:05;24.40;;;21.90;;
46765;SDS011;32527;51.986;5.842;2023-05-10T08:55:32;23.05;;;20.88;;
46765;SDS011;32527;51.986;5.842;2023-05-10T08:57:59;23.63;;;21.48;;
46765;SDS011;32527;51.986;5.842;2023-05-10T09:00:26;23.42;;;21.48;;
46765;SDS011;32527;51.986;5.842;2023-05-10T09:02:53;20.77;;;18.88;;
46765;SDS011;32527;51.986;5.842;2023-05-10T09:05:19;22.33;;;20.48;;
46765;SDS011;32527;51.986;5.842;2023-05-10T09:07:45;20.52;;;18.73;;
46765;SDS011;32527;51.986;5.842;2023-05-10T09:10:11;20.17;;;18.30;;
46765;SDS011;32527;51.986;5.842;2023-05-10T09:12:40;21.20;;;19.63;;
46765;SDS011;32527;51.986;5.842;2023-05-10T09:15:07;19.60;;;18.08;;
46765;SDS011;32527;51.986;5.842;2023-05-10T09:17:38;17.45;;;16.10;;
46765;SDS011;32527;51.986;5.842;2023-05-10T09:20:08;20.63;;;18.92;;
46765;SDS011;32527;51.986;5.842;2023-05-10T09:22:34;18.73;;;17.33;;
46765;SDS011;32527;51.986;5.842;2023-05-10T09:25:07;20.52;;;19.23;;
46765;SDS011;32527;51.986;5.842;2023-05-10T09:27:36;18.63;;;17.33;;
46765;SDS011;32527;51.986;5.842;2023-05-10T09:30:03;19.85;;;18.38;;
46765;SDS011;32527;51.986;5.842;2023-05-10T09:32:40;19.15;;;17.63;;
46765;SDS011;32527;51.986;5.842;2023-05-10T09:35:14;17.45;;;16.35;;
46765;SDS011;32527;51.986;5.842;2023-05-10T09:37:42;18.95;;;17.45;;
46765;SDS011;32527;51.986;5.842;2023-05-10T09:40:10;16.67;;;15.38;;
46765;SDS011;32527;51.986;5.842;2023-05-10T09:45:26;17.77;;;16.52;;
46765;SDS011;32527;51.986;5.842;2023-05-10T09:47:54;15.45;;;14.45;;
46765;SDS011;32527;51.986;5.842;2023-05-10T09:50:22;17.42;;;15.93;;
46765;SDS011;32527;51.986;5.842;2023-05-10T09:53:01;15.65;;;14.43;;
46765;SDS011;32527;51.986;5.842;2023-05-10T09:55:45;18.20;;;16.70;;
46765;SDS011;32527;51.986;5.842;2023-05-10T09:58:12;14.52;;;13.40;;
46765;SDS011;32527;51.986;5.842;2023-05-10T10:00:43;15.25;;;14.25;;
46765;SDS011;32527;51.986;5.842;2023-05-10T10:03:16;15.48;;;14.32;;
46765;SDS011;32527;51.986;5.842;2023-05-10T10:05:44;16.33;;;15.02;;
46765;SDS011;32527;51.986;5.842;2023-05-10T10:08:10;13.80;;;12.70;;
46765;SDS011;32527;51.986;5.842;2023-05-10T10:10:39;14.88;;;13.80;;
46765;SDS011;32527;51.986;5.842;2023-05-10T10:13:06;16.95;;;15.55;;
46765;SDS011;32527;51.986;5.842;2023-05-10T10:15:33;15.13;;;13.73;;
46765;SDS011;32527;51.986;5.842;2023-05-10T10:18:00;16.23;;;14.77;;
46765;SDS011;32527;51.986;5.842;2023-05-10T10:20:29;15.68;;;14.27;;
46765;SDS011;32527;51.986;5.842;2023-05-10T10:22:55;17.60;;;16.05;;
46765;SDS011;32527;51.986;5.842;2023-05-10T10:25:22;18.33;;;16.77;;
46765;SDS011;32527;51.986;5.842;2023-05-10T10:35:19;18.65;;;17.15;;
46765;SDS011;32527;51.986;5.842;2023-05-10T10:37:46;19.60;;;17.95;;
46765;SDS011;32527;51.986;5.842;2023-05-10T10:40:25;17.38;;;16.02;;
46765;SDS011;32527;51.986;5.842;2023-05-10T10:42:53;19.10;;;17.50;;
46765;SDS011;32527;51.986;5.842;2023-05-10T10:45:19;20.00;;;18.55;;
46765;SDS011;32527;51.986;5.842;2023-05-10T10:47:46;18.20;;;16.60;;
46765;SDS011;32527;51.986;5.842;2023-05-10T10:50:12;19.58;;;17.98;;
46765;SDS011;32527;51.986;5.842;2023-05-10T10:52:41;18.23;;;16.63;;
46765;SDS011;32527;51.986;5.842;2023-05-10T10:55:09;18.42;;;17.05;;
46765;SDS011;32527;51.986;5.842;2023-05-10T10:57:43;17.17;;;15.98;;
46765;SDS011;32527;51.986;5.842;2023-05-10T11:00:20;16.55;;;15.40;;
46765;SDS011;32527;51.986;5.842;2023-05-10T11:05:38;18.23;;;16.75;;
46765;SDS011;32527;51.986;5.842;2023-05-10T11:08:15;18.83;;;17.50;;
46765;SDS011;32527;51.986;5.842;2023-05-10T11:10:49;20.15;;;18.48;;
46765;SDS011;32527;51.986;5.842;2023-05-10T11:13:17;18.02;;;16.83;;
46765;SDS011;32527;51.986;5.842;2023-05-10T11:15:54;20.38;;;19.02;;
46765;SDS011;32527;51.986;5.842;2023-05-10T11:18:26;21.48;;;20.00;;
46765;SDS011;32527;51.986;5.842;2023-05-10T11:21:00;20.27;;;18.98;;
46765;SDS011;32527;51.986;5.842;2023-05-10T11:23:31;20.05;;;18.75;;
46765;SDS011;32527;51.986;5.842;2023-05-10T11:25:59;20.98;;;19.77;;
46765;SDS011;32527;51.986;5.842;2023-05-10T11:28:26;20.42;;;19.08;;
46765;SDS011;32527;51.986;5.842;2023-05-10T11:30:53;20.52;;;19.30;;
46765;SDS011;32527;51.986;5.842;2023-05-10T11:33:20;21.55;;;20.15;;
46765;SDS011;32527;51.986;5.842;2023-05-10T11:35:46;19.05;;;17.75;;
46765;SDS011;32527;51.986;5.842;2023-05-10T11:38:12;19.65;;;18.35;;
46765;SDS011;32527;51.986;5.842;2023-05-10T11:40:41;19.50;;;18.08;;
46765;SDS011;32527;51.986;5.842;2023-05-10T11:43:08;19.83;;;18.63;;
46765;SDS011;32527;51.986;5.842;2023-05-10T11:45:35;19.00;;;17.80;;
46765;SDS011;32527;51.986;5.842;2023-05-10T11:48:01;15.95;;;14.95;;
46765;SDS011;32527;51.986;5.842;2023-05-10T11:50:27;19.58;;;18.38;;
46765;SDS011;32527;51.986;5.842;2023-05-10T11:52:57;17.65;;;16.55;;
46765;SDS011;32527;51.986;5.842;2023-05-10T11:55:23;19.02;;;17.42;;
46765;SDS011;32527;51.986;5.842;2023-05-10T11:57:53;19.98;;;18.50;;
46765;SDS011;32527;51.986;5.842;2023-05-10T12:00:19;20.60;;;19.30;;
46765;SDS011;32527;51.986;5.842;2023-05-10T12:02:46;18.85;;;17.75;;
46765;SDS011;32527;51.986;5.842;2023-05-10T12:05:12;19.73;;;18.38;;
46765;SDS011;32527;51.986;5.842;2023-05-10T12:07:38;18.95;;;17.73;;
46765;SDS011;32527;51.986;5.842;2023-05-10T12:12:41;16.15;;;15.02;;
46765;SDS011;32527;51.986;5.842;2023-05-10T12:15:18;15.82;;;14.82;;
46765;SDS011;32527;51.986;5.842;2023-05-10T12:17:48;14.63;;;13.63;;
46765;SDS011;32527;51.986;5.842;2023-05-10T12:20:18;14.23;;;13.20;;
46765;SDS011;32527;51.986;5.842;2023-05-10T12:22:51;14.00;;;13.10;;
46765;SDS011;32527;51.986;5.842;2023-05-10T12:25:19;14.25;;;13.15;;
46765;SDS011;32527;51.986;5.842;2023-05-10T12:27:56;13.50;;;12.50;;
46765;SDS011;32527;51.986;5.842;2023-05-10T12:32:49;13.68;;;12.77;;
46765;SDS011;32527;51.986;5.842;2023-05-10T12:35:15;13.57;;;12.60;;
46765;SDS011;32527;51.986;5.842;2023-05-10T12:37:42;14.50;;;13.40;;
46765;SDS011;32527;51.986;5.842;2023-05-10T12:40:08;14.68;;;13.70;;
46765;SDS011;32527;51.986;5.842;2023-05-10T12:42:38;15.73;;;14.73;;
46765;SDS011;32527;51.986;5.842;2023-05-10T12:45:05;13.27;;;12.38;;
46765;SDS011;32527;51.986;5.842;2023-05-10T12:47:31;15.18;;;14.25;;
46765;SDS011;32527;51.986;5.842;2023-05-10T12:49:58;14.23;;;13.05;;
46765;SDS011;32527;51.986;5.842;2023-05-10T12:52:25;13.68;;;12.68;;
46765;SDS011;32527;51.986;5.842;2023-05-10T12:54:51;13.93;;;13.05;;
46765;SDS011;32527;51.986;5.842;2023-05-10T12:57:18;13.90;;;13.00;;
46765;SDS011;32527;51.986;5.842;2023-05-10T12:59:44;11.73;;;10.93;;
46765;SDS011;32527;51.986;5.842;2023-05-10T13:02:10;14.27;;;13.27;;
46765;SDS011;32527;51.986;5.842;2023-05-10T13:04:36;13.57;;;12.68;;
46765;SDS011;32527;51.986;5.842;2023-05-10T13:07:08;13.40;;;12.45;;
46765;SDS011;32527;51.986;5.842;2023-05-10T13:09:34;12.88;;;12.07;;
46765;SDS011;32527;51.986;5.842;2023-05-10T13:12:00;15.38;;;14.48;;
46765;SDS011;32527;51.986;5.842;2023-05-10T13:14:26;13.05;;;12.20;;
46765;SDS011;32527;51.986;5.842;2023-05-10T13:16:52;14.52;;;13.55;;
46765;SDS011;32527;51.986;5.842;2023-05-10T13:19:18;16.02;;;14.98;;
46765;SDS011;32527;51.986;5.842;2023-05-10T13:21:44;15.10;;;14.15;;
46765;SDS011;32527;51.986;5.842;2023-05-10T13:24:11;13.88;;;12.88;;
46765;SDS011;32527;51.986;5.842;2023-05-10T13:26:39;15.35;;;13.88;;
46765;SDS011;32527;51.986;5.842;2023-05-10T13:29:05;14.88;;;13.90;;
46765;SDS011;32527;51.986;5.842;2023-05-10T13:31:31;13.68;;;12.68;;
46765;SDS011;32527;51.986;5.842;2023-05-10T13:33:57;13.65;;;12.82;;
46765;SDS011;32527;51.986;5.842;2023-05-10T13:36:23;14.07;;;13.18;;
46765;SDS011;32527;51.986;5.842;2023-05-10T13:38:49;15.55;;;14.52;;
46765;SDS011;32527;51.986;5.842;2023-05-10T13:41:15;14.98;;;13.98;;
46765;SDS011;32527;51.986;5.842;2023-05-10T13:43:41;18.42;;;17.05;;
46765;SDS011;32527;51.986;5.842;2023-05-10T13:46:07;19.73;;;18.52;;
46765;SDS011;32527;51.986;5.842;2023-05-10T13:48:33;18.48;;;17.27;;
46765;SDS011;32527;51.986;5.842;2023-05-10T13:50:59;20.85;;;19.58;;
46765;SDS011;32527;51.986;5.842;2023-05-10T13:53:25;20.75;;;19.55;;
46765;SDS011;32527;51.986;5.842;2023-05-10T13:55:51;20.63;;;19.33;;
46765;SDS011;32527;51.986;5.842;2023-05-10T13:58:17;20.10;;;18.80;;
46765;SDS011;32527;51.986;5.842;2023-05-10T14:00:44;20.35;;;19.10;;
46765;SDS011;32527;51.986;5.842;2023-05-10T14:03:10;21.55;;;20.25;;
46765;SDS011;32527;51.986;5.842;2023-05-10T14:05:36;21.38;;;19.65;;
46765;SDS011;32527;51.986;5.842;2023-05-10T14:08:02;21.90;;;20.50;;
46765;SDS011;32527;51.986;5.842;2023-05-10T14:10:29;23.23;;;21.80;;
46765;SDS011;32527;51.986;5.842;2023-05-10T14:12:58;23.02;;;21.52;;
46765;SDS011;32527;51.986;5.842;2023-05-10T14:15:24;23.23;;;21.77;;
46765;SDS011;32527;51.986;5.842;2023-05-10T14:17:50;23.52;;;22.17;;
46765;SDS011;32527;51.986;5.842;2023-05-10T14:20:16;22.50;;;21.10;;
46765;SDS011;32527;51.986;5.842;2023-05-10T14:22:42;22.17;;;20.73;;
46765;SDS011;32527;51.986;5.842;2023-05-10T14:25:08;20.33;;;18.98;;
46765;SDS011;32527;51.986;5.842;2023-05-10T14:27:35;20.80;;;19.50;;
46765;SDS011;32527;51.986;5.842;2023-05-10T14:30:01;20.52;;;19.33;;
46765;SDS011;32527;51.986;5.842;2023-05-10T14:32:27;20.95;;;19.75;;
46765;SDS011;32527;51.986;5.842;2023-05-10T14:34:53;17.67;;;16.60;;
46765;SDS011;32527;51.986;5.842;2023-05-10T14:37:19;18.00;;;17.00;;
46765;SDS011;32527;51.986;5.842;2023-05-10T14:39:46;17.50;;;16.40;;
46765;SDS011;32527;51.986;5.842;2023-05-10T14:42:12;17.65;;;16.65;;
46765;SDS011;32527;51.986;5.842;2023-05-10T14:44:38;19.50;;;18.40;;
46765;SDS011;32527;51.986;5.842;2023-05-10T14:47:04;18.20;;;17.10;;
46765;SDS011;32527;51.986;5.842;2023-05-10T14:49:30;18.85;;;17.73;;
46765;SDS011;32527;51.986;5.842;2023-05-10T14:51:56;20.08;;;18.90;;
46765;SDS011;32527;51.986;5.842;2023-05-10T14:54:22;22.30;;;21.10;;